APL Indonesia — V2EC7 — position and weather

sailwx.info

Track history (hours):
 
Tides and Currents Weather Stations Pressure Air Temp Water Temp Dewpoint Dewpoint Depression Visibility Wind Speed Wind Dir Waves Ship Positions

APL Indonesia

Last reported at 2014-Oct-25 12:31 UTC. Time now 2014-Nov-01 07:44 UTC.
Position N 25°34' W 079°59'.

Length 261 m; draft 9 m.

Type: Ship (hazmat cat D). MMSI: 305386000.

Date/timePositionNaut miles runAvg speedWind from/ knotsBaromVisibWave heightAir tempDewpointWater temp
2014-Oct-25 12:31N 25°34' W 079°59'1515.0
2014-Oct-25 11:31N 25°46' W 080°08'1 0.1
2014-Oct-25 02:32N 25°46' W 080°09'0 0.0
2014-Oct-24 20:09N 25°46' W 080°09'1 1.9
2014-Oct-24 19:33N 25°46' W 080°08'8 8.3
2014-Oct-24 18:34N 25°50' W 080°00'1515.4
2014-Oct-24 17:33N 26°03' W 079°52'1615.8
2014-Oct-24 16:33N 26°19' W 079°52'1615.6
2014-Oct-24 15:33N 26°35' W 079°52'1615.9
2014-Oct-24 14:32N 26°51' W 079°52'1515.8
2014-Oct-24 13:33N 27°06' W 079°52'  
2014-Oct-21 14:33N 39°21' W 073°52'1413.8
2014-Oct-21 13:32N 39°35' W 073°52'1615.9
2014-Oct-21 12:33N 39°51' W 073°52'2316.4
2014-Oct-21 11:08N 40°14' W 073°50'913.8
2014-Oct-21 10:29N 40°23' W 073°49'1212.8
2014-Oct-21 09:33N 40°31' W 074°00'9 9.1
2014-Oct-21 08:33N 40°39' W 074°07'2 1.9
2014-Oct-21 07:34N 40°40' W 074°08'0 0.0
2014-Oct-21 06:33N 40°40' W 074°08'0 0.0
2014-Oct-21 05:33N 40°40' W 074°08'0 0.0
2014-Oct-21 04:33N 40°40' W 074°08'0 0.0
2014-Oct-21 03:33N 40°40' W 074°08'0 0.0
2014-Oct-21 02:33N 40°40' W 074°08'0 0.0
2014-Oct-21 01:33N 40°40' W 074°08'0 0.0
2014-Oct-21 00:33N 40°40' W 074°08'0 0.0
2014-Oct-20 23:33N 40°40' W 074°08'0 0.0
2014-Oct-20 22:33N 40°40' W 074°08'0 0.0
2014-Oct-20 21:33N 40°40' W 074°08'0 0.0
2014-Oct-20 20:30N 40°40' W 074°08'0 0.0
2014-Oct-20 19:33N 40°40' W 074°08'0 0.0
2014-Oct-20 18:33N 40°40' W 074°08'0 0.0
2014-Oct-20 17:33N 40°40' W 074°08'0 0.0
2014-Oct-20 16:33N 40°40' W 074°08'0 0.0
2014-Oct-20 15:33N 40°40' W 074°08'0 0.0
2014-Oct-20 14:33N 40°40' W 074°08'0 0.0
2014-Oct-20 13:33N 40°40' W 074°08'0 0.0
2014-Oct-20 12:33N 40°40' W 074°08'0 0.0
2014-Oct-20 11:33N 40°40' W 074°08'1 1.3
2014-Oct-20 10:34N 40°39' W 074°09'5 5.1
2014-Oct-20 09:33N 40°37' W 074°03'1010.2
2014-Oct-20 08:33N 40°29' W 073°54'9 9.4
2014-Oct-20 07:33N 40°22' W 073°47'1815.7
2014-Oct-20 06:24N 40°03' W 073°43'1816.0
2014-Oct-20 05:17N 39°46' W 073°40'1515.9
2014-Oct-20 04:21N 39°31' W 073°40'1415.7
2014-Oct-20 03:27N 39°17' W 073°40'  
2014-Oct-17 06:20N 26°53' W 079°41'1819.9
2014-Oct-17 05:26N 26°36' W 079°39'1819.9
2014-Oct-17 04:33N 26°18' W 079°37'2019.9
2014-Oct-17 03:33N 25°58' W 079°36'  
Track history (hours):
 
Tides and Currents Weather Stations Pressure Air Temp Water Temp Dewpoint Dewpoint Depression Visibility Wind Speed Wind Dir Waves Ship Positions

APL Indonesia

Last reported at 2014-Oct-25 12:31 UTC. Time now 2014-Nov-01 07:44 UTC.
Position N 25°34' W 079°59'.

Length 261 m; draft 9 m.

Type: Ship (hazmat cat D). MMSI: 305386000.

Date/timePositionNaut miles runAvg speedWind from/ knotsBaromVisibWave heightAir tempDewpointWater temp
2014-Oct-25 12:31N 25°34' W 079°59'1515.0
2014-Oct-25 11:31N 25°46' W 080°08'1 0.1
2014-Oct-25 02:32N 25°46' W 080°09'0 0.0
2014-Oct-24 20:09N 25°46' W 080°09'1 1.9
2014-Oct-24 19:33N 25°46' W 080°08'8 8.3
2014-Oct-24 18:34N 25°50' W 080°00'1515.4
2014-Oct-24 17:33N 26°03' W 079°52'1615.8
2014-Oct-24 16:33N 26°19' W 079°52'1615.6
2014-Oct-24 15:33N 26°35' W 079°52'1615.9
2014-Oct-24 14:32N 26°51' W 079°52'1515.8
2014-Oct-24 13:33N 27°06' W 079°52'  
2014-Oct-21 14:33N 39°21' W 073°52'1413.8
2014-Oct-21 13:32N 39°35' W 073°52'1615.9
2014-Oct-21 12:33N 39°51' W 073°52'2316.4
2014-Oct-21 11:08N 40°14' W 073°50'913.8
2014-Oct-21 10:29N 40°23' W 073°49'1212.8
2014-Oct-21 09:33N 40°31' W 074°00'9 9.1
2014-Oct-21 08:33N 40°39' W 074°07'2 1.9
2014-Oct-21 07:34N 40°40' W 074°08'0 0.0
2014-Oct-21 06:33N 40°40' W 074°08'0 0.0
2014-Oct-21 05:33N 40°40' W 074°08'0 0.0
2014-Oct-21 04:33N 40°40' W 074°08'0 0.0
2014-Oct-21 03:33N 40°40' W 074°08'0 0.0
2014-Oct-21 02:33N 40°40' W 074°08'0 0.0
2014-Oct-21 01:33N 40°40' W 074°08'0 0.0
2014-Oct-21 00:33N 40°40' W 074°08'0 0.0
2014-Oct-20 23:33N 40°40' W 074°08'0 0.0
2014-Oct-20 22:33N 40°40' W 074°08'0 0.0
2014-Oct-20 21:33N 40°40' W 074°08'0 0.0
2014-Oct-20 20:30N 40°40' W 074°08'0 0.0
2014-Oct-20 19:33N 40°40' W 074°08'0 0.0
2014-Oct-20 18:33N 40°40' W 074°08'0 0.0
2014-Oct-20 17:33N 40°40' W 074°08'0 0.0
2014-Oct-20 16:33N 40°40' W 074°08'0 0.0
2014-Oct-20 15:33N 40°40' W 074°08'0 0.0
2014-Oct-20 14:33N 40°40' W 074°08'0 0.0
2014-Oct-20 13:33N 40°40' W 074°08'0 0.0
2014-Oct-20 12:33N 40°40' W 074°08'0 0.0
2014-Oct-20 11:33N 40°40' W 074°08'1 1.3
2014-Oct-20 10:34N 40°39' W 074°09'5 5.1
2014-Oct-20 09:33N 40°37' W 074°03'1010.2
2014-Oct-20 08:33N 40°29' W 073°54'9 9.4
2014-Oct-20 07:33N 40°22' W 073°47'1815.7
2014-Oct-20 06:24N 40°03' W 073°43'1816.0
2014-Oct-20 05:17N 39°46' W 073°40'1515.9
2014-Oct-20 04:21N 39°31' W 073°40'1415.7
2014-Oct-20 03:27N 39°17' W 073°40'  
2014-Oct-17 06:20N 26°53' W 079°41'1819.9
2014-Oct-17 05:26N 26°36' W 079°39'1819.9
2014-Oct-17 04:33N 26°18' W 079°37'2019.9
2014-Oct-17 03:33N 25°58' W 079°36'  

Dump ship's entire track history